• Join FlightAware (Why Join?)
  • Login
  • US Flag 
04:03AM EDT


 

Airport Tracker/Info


-or-


 

Live Flight TrackerFlight Track Log ✈ NKS212 ✈ 29-Jun-2014 ✈ TIST / STT - KFLL

Flight Track Log - Related Links

Times and Time Zones

All times are in EDT time to prevent confusion due to time zone crossing. See the NKS212 flight status page for this flight to view local times or setup timezone preferences in your user account.

Time Position Orientation Groundspeed Altitude Reporting Facility
EDT Latitude Longitude Course Direction KTS MPH feet Rate Location/Type
04:09PM 18.4586 -65.3394 305° West 361 415 11,600  Level FlightAware ADS-B (TNCM / SXM)
04:12PM 18.6080 -65.5664 305° West 405 466 17,100 2,160 Climbing FlightAware ADS-B (TNCM / SXM)
04:12PM 18.6393 -65.6140 305° West 409 471 18,100 1,920 Climbing FlightAware ADS-B (TNCM / SXM)
04:13PM 18.7198 -65.7361 305° West 420 483 20,500 1,980 Climbing FlightAware ADS-B (TNCM / SXM)
04:14PM 18.7483 -65.7792 305° West 420 483 21,500 2,100 Climbing FlightAware ADS-B (TNCM / SXM)
04:14PM 18.7906 -65.8436 305° West 420 483 22,800 1,740 Climbing FlightAware ADS-B (TNCM / SXM)
04:15PM 18.8239 -65.8942 305° West 422 486 23,500 1,380 Climbing FlightAware ADS-B (TNCM / SXM)
04:18PM 19.0379 -66.2206 305° West 447 514 28,000 1,380 Climbing FlightAware ADS-B (TNCM / SXM)
04:18PM 19.0651 -66.2623 305° West 450 518 28,500 1,260 Climbing FlightAware ADS-B (TNCM / SXM)
04:20PM 19.1333 -66.3833 305° West 460 529 30,000 1,500 Climbing San Juan Center
04:21PM 19.2000 -66.4833 305° West 430 495 31,800 1,620 Climbing San Juan Center
04:22PM 19.2667 -66.5833 305° West 440 506 33,300 1,440 Climbing San Juan Center
04:23PM 19.3333 -66.6833 305° West 430 495 34,800 1,320 Climbing San Juan Center
04:24PM 19.4167 -66.8000 307° West 430 495 36,000 600 Climbing San Juan Center
04:25PM 19.4667 -66.9000 298° West 420 483 36,000  Level San Juan Center
04:26PM 19.5333 -67.0000 305° West 410 472 36,000  Level San Juan Center
04:27PM 19.6000 -67.1000 305° West 420 483 36,000  Level San Juan Center
04:28PM 19.6667 -67.2000 305° West 430 495 36,000  Level San Juan Center
04:29PM 19.7333 -67.3000 305° West 420 483 36,000  Level San Juan Center
04:30PM 19.8000 -67.4167 301° West 420 483 36,000  Level San Juan Center
04:31PM 19.8667 -67.5167 305° West 430 495 36,000  Level San Juan Center
04:32PM 19.9333 -67.6167 305° West 420 483 36,000  Level San Juan Center
04:33PM 20.0167 -67.7500 304° West 420 483 36,000  Level San Juan Center
04:34PM 20.0833 -67.8500 305° West 420 483 36,000  Level San Juan Center
04:35PM 20.1500 -67.9500 305° West 430 495 36,000  Level San Juan Center
04:36PM 20.2167 -68.0500 305° West 430 495 36,000  Level San Juan Center
04:37PM 20.3161 -68.1942 306° West 428 493 36,000  Level Miami Center
04:38PM 20.3817 -68.3017 303° West 429 494 36,000  Level Miami Center
04:39PM 20.4450 -68.4108 302° West 429 494 36,000  Level Miami Center
04:40PM 20.5086 -68.5203 302° West 430 495 36,000  Level Miami Center
04:41PM 20.5697 -68.6311 301° West 431 496 36,000  Level Miami Center
04:42PM 20.6469 -68.7642 302° West 434 499 36,000  Level Miami Center
04:43PM 20.7097 -68.8761 301° West 435 501 36,000  Level Miami Center
04:44PM 20.7742 -68.9886 302° West 438 504 36,000  Level Miami Center
04:45PM 20.8375 -69.1022 301° West 440 506 36,000  Level Miami Center
04:46PM 20.9017 -69.2144 301° West 440 506 36,000  Level Miami Center
04:47PM 20.9661 -69.3281 301° West 441 507 36,000  Level Miami Center
04:48PM 21.0422 -69.4639 301° West 441 507 36,000  Level Miami Center
04:49PM 21.1067 -69.5764 302° West 441 507 36,000  Level Miami Center
04:50PM 21.1706 -69.6894 301° West 442 509 36,000  Level Miami Center
04:51PM 21.2325 -69.8025 300° West 442 509 36,000  Level Miami Center
04:52PM 21.2944 -69.9161 300° West 442 509 36,000  Level Miami Center
04:53PM 21.3594 -70.0308 301° West 442 509 36,000  Level Miami Center
04:54PM 21.4367 -70.1675 301° West 443 510 36,000  Level Miami Center
04:55PM 21.5000 -70.2833 300° West 446 513 36,000  Level Miami Center
04:57PM 21.5633 -70.3975 301° West 447 514 36,000  Level Miami Center
04:58PM 21.6269 -70.5100 301° West 447 514 36,000  Level Miami Center
04:59PM 21.6903 -70.6244 301° West 447 514 36,000  Level Miami Center
05:00PM 21.7647 -70.7603 301° West 447 514 36,000  Level Miami Center
05:01PM 21.8286 -70.8753 301° West 447 514 36,000  Level Miami Center
05:02PM 21.8914 -70.9897 301° West 447 514 36,000  Level Miami Center
05:03PM 21.9544 -71.1047 301° West 447 514 36,000  Level Miami Center
05:04PM 22.0175 -71.2194 301° West 447 514 36,000  Level Miami Center
05:05PM 22.0936 -71.3589 301° West 447 514 36,000  Level Miami Center
05:06PM 22.1569 -71.4753 300° West 447 514 36,000  Level Miami Center
05:07PM 22.2203 -71.5925 300° West 449 517 36,000  Level Miami Center
05:08PM 22.2842 -71.7097 301° West 454 522 36,000  Level Miami Center
05:09PM 22.3475 -71.8283 300° West 454 522 36,000  Level Miami Center
05:10PM 22.4133 -71.9453 301° West 454 522 36,000  Level Miami Center
05:11PM 22.4889 -72.0872 300° West 454 522 36,000  Level Miami Center
05:12PM 22.5522 -72.2053 300° West 454 522 36,000  Level Miami Center
05:13PM 22.6142 -72.3242 299° West 454 522 36,000  Level Miami Center
05:14PM 22.6781 -72.4431 300° West 454 522 36,000  Level Miami Center
05:15PM 22.7419 -72.5611 300° West 455 524 36,000  Level Miami Center
05:16PM 22.8047 -72.6797 300° West 455 524 36,000  Level Miami Center
05:17PM 22.8825 -72.8228 301° West 455 524 36,000  Level Miami Center
05:18PM 22.9444 -72.9422 299° West 455 524 36,000  Level Miami Center
05:19PM 23.0078 -73.0625 300° West 456 525 36,000  Level Miami Center
05:20PM 23.0739 -73.1892 300° West 456 525 36,000  Level Miami Center
05:21PM 23.1369 -73.3083 300° West 456 525 36,000  Level Miami Center
05:22PM 23.2008 -73.4275 300° West 456 525 36,000  Level Miami Center
05:23PM 23.2625 -73.5481 299° West 456 525 36,000  Level Miami Center
05:24PM 23.3281 -73.6675 301° West 457 526 36,000  Level Miami Center
05:25PM 23.4019 -73.8119 299° West 457 526 36,000  Level Miami Center
05:27PM 23.4631 -73.9325 299° West 457 526 36,000  Level Miami Center
05:28PM 23.5253 -74.0522 300° West 457 526 36,000  Level Miami Center
05:29PM 23.5892 -74.1733 300° West 457 526 36,000  Level Miami Center
05:30PM 23.6500 -74.2939 299° West 457 526 36,000  Level Miami Center
05:31PM 23.7139 -74.4139 300° West 457 526 36,000  Level Miami Center
05:32PM 23.7869 -74.5581 299° West 457 526 36,000  Level Miami Center
05:33PM 23.8497 -74.6786 300° West 456 525 36,000  Level Miami Center
05:34PM 23.9108 -74.7992 299° West 456 525 36,000  Level Miami Center
05:35PM 23.9731 -74.9208 299° West 456 525 36,000  Level Miami Center
05:36PM 24.0347 -75.0414 299° West 457 526 36,000  Level Miami Center
05:37PM 24.1075 -75.1856 299° West 456 525 36,000  Level Miami Center
05:38PM 24.1683 -75.3064 299° West 456 525 36,000  Level Miami Center
05:39PM 24.2292 -75.4281 299° West 457 526 36,000  Level Miami Center
05:40PM 24.2906 -75.5497 299° West 456 525 36,000  Level Miami Center
05:41PM 24.3514 -75.6711 299° West 457 526 36,000  Level Miami Center
05:42PM 24.4117 -75.7922 299° West 457 526 36,000  Level Miami Center
05:43PM 24.4833 -75.9383 298° West 456 525 36,000  Level Miami Center
05:44PM 24.5439 -76.0614 298° West 456 525 36,000  Level Miami Center
05:45PM 24.6053 -76.1831 299° West 456 525 36,100  Climbing Miami Center
05:46PM 24.6656 -76.3089 298° West 459 528 36,000 -60 Descending Miami Center
05:47PM 24.7264 -76.4306 299° West 459 528 36,000  Level Miami Center
05:48PM 24.7867 -76.5556 298° West 459 528 36,000  Level Miami Center
05:49PM 24.8597 -76.7028 299° West 459 528 36,000  Level Miami Center
05:50PM 24.9208 -76.8261 299° West 459 528 36,000  Level Miami Center
05:51PM 24.9817 -76.9519 298° West 462 532 36,000  Level Miami Center
05:52PM 25.0406 -77.0767 298° West 462 532 36,000  Level Miami Center
05:53PM 25.1022 -77.2022 298° West 463 533 36,000  Level Miami Center
05:54PM 25.1619 -77.3289 298° West 463 533 36,000  Level Miami Center
05:55PM 25.2319 -77.4658 299° West 458 527 36,000 -240 Level Miami Center
06:01PM 25.5489 -78.1397 284° West 447 514 34,700 -360 Descending FlightAware ADS-B (KEYW)
06:01PM 25.5533 -78.1784 272° West 443 510 34,200 -1,560 Descending FlightAware ADS-B (KEYW)
06:01PM 25.5486 -78.2264 256° West 432 497 33,700 -1,500 Descending FlightAware ADS-B (KEYW)
06:02PM 25.5339 -78.2665 240° Southwest 423 487 33,200 -1,200 Descending FlightAware ADS-B (KEYW)
06:02PM 25.5166 -78.2921 227° Southwest 414 476 33,000 -1,200 Descending FlightAware ADS-B (KEYW)
06:03PM 25.4758 -78.3229 203° Southwest 404 465 32,400 -1,740 Descending FlightAware ADS-B (KEYW)
06:03PM 25.4392 -78.3313 186° South 400 460 31,700 -1,980 Descending FlightAware ADS-B (KEYW)
06:03PM 25.4034 -78.3396 200° South 400 460 31,100 -1,680 Descending FlightAware ADS-B (KEYW)
06:03PM 25.3780 -78.3543 215° Southwest 399 459 30,700 -1,620 Descending FlightAware ADS-B (KEYW)
06:04PM 25.3585 -78.3739 226° Southwest 397 457 30,300 -2,160 Descending FlightAware ADS-B (KEYW)
06:04PM 25.3304 -78.4572 269° West 399 459 28,700 -2,040 Descending FlightAware ADS-B (KEYW)
06:05PM 25.3317 -78.4739 279° West 397 457 28,500 -1,500 Descending FlightAware ADS-B (KEYW)
06:05PM 25.3346 -78.4883 290° West 393 452 28,200 -1,200 Descending FlightAware ADS-B (KEYW)
06:05PM 25.3693 -78.5682 297° West 385 443 27,500 -1,320 Descending FlightAware ADS-B (KEYW)
06:06PM 25.3930 -78.6199 297° West 381 438 26,700 -1,680 Descending FlightAware ADS-B (KEYW)
06:06PM 25.4146 -78.6670 297° West 377 434 25,900 -1,740 Descending FlightAware ADS-B (KEYW)
06:07PM 25.4401 -78.7221 298° West 375 432 25,000 -1,680 Descending FlightAware ADS-B (KEYW)
06:08PM 25.4807 -78.8095 298° West 368 423 23,500 -1,620 Descending FlightAware ADS-B (KEYW)
06:08PM 25.5129 -78.8791 297° West 356 410 22,500 -1,620 Descending FlightAware ADS-B (KEYW)
06:09PM 25.5438 -78.9463 297° West 354 407 21,400 -1,680 Descending FlightAware ADS-B (KEYW)
06:10PM 25.5907 -79.0483 297° West 334 384 19,600 -1,920 Descending FlightAware ADS-B (KEYW)
06:11PM 25.6086 -79.0873 298° West 332 382 18,400 -2,160 Descending FlightAware ADS-B (KEYW)
06:12PM 25.6528 -79.1806 298° West 332 382 16,000 -2,340 Descending Miami Center
06:14PM 25.7336 -79.3639 296° West 297 342 10,800 -2,400 Descending Miami Center
06:15PM 25.7678 -79.4417 296° West 284 327 8,600 -2,220 Descending Miami Center
06:15PM 25.7803 -79.4725 294° West 271 312 7,700 -2,340 Descending Miami Center
06:16PM 25.8008 -79.5167 297° West 275 316 6,200 -2,160 Descending Miami Center
06:17PM 25.8211 -79.5656 295° West 268 308 5,100 -1,260 Descending Miami Center
06:17PM 25.8328 -79.5906 297° West 270 311 4,900 -120 Descending Miami Center
06:18PM 25.8581 -79.6494 296° West 270 311 5,000 60 Climbing Miami Center
06:18PM 25.8636 -79.6653 291° West 269 310 5,000  Level Miami Center
06:19PM 25.8892 -79.7256 295° West 264 304 5,000 -120 Level Miami Center
06:19PM 25.8956 -79.7389 298° West 267 307 4,900  Descending Miami Center
06:20PM 25.9225 -79.7975 297° West 264 304 5,000  Climbing Miami Center
06:20PM 25.9350 -79.8247 297° West 263 303 4,900  Descending Miami Center
06:21PM 25.9617 -79.8792 299° West 263 303 5,000  Climbing Miami Center
06:21PM 25.9694 -79.8961 297° West 263 303 4,900  Descending Miami Center
06:22PM 25.9914 -79.9417 298° West 264 304 5,000  Climbing Miami Center
06:22PM 26.0050 -79.9681 300° West 265 305 4,900  Descending Miami Center
06:23PM 26.0286 -80.0161 299° West 265 305 5,000  Climbing Miami Center
06:23PM 26.0403 -80.0392 299° West 264 304 4,900  Descending Miami Center
06:24PM 26.0639 -80.0883 298° West 256 295 5,000 60 Climbing Miami Center
06:24PM 26.0742 -80.1064 302° West 247 284 5,000 -240 Level Miami Center
06:25PM 26.0939 -80.1464 299° West 206 237 4,800 -600 Descending Miami Center
06:25PM 26.1042 -80.1650 302° West 224 258 4,400 -720 Descending Miami Center
06:26PM 26.1294 -80.2164 299° West 227 261 4,000 -300 Descending Miami Center
06:27PM 26.1428 -80.2683 286° West 224 258 4,000 -120 Level Miami Center
06:27PM 26.1417 -80.3075 268° West 220 253 3,900 -360 Descending Miami Center
06:28PM 26.1158 -80.3314 220° Southwest 223 257 3,600 -720 Descending Miami Center
06:28PM 26.0908 -80.3300 177° South 212 244 3,200 -720 Descending Miami Center
06:29PM 26.0778 -80.3053 120° Southeast 151 174 2,900 -900 Descending Miami Center
06:30PM 26.0764 -80.2611 92° East 140 161 1,900 -960 Descending Miami Center
06:30PM 26.0772 -80.2425 87° East 145 167 1,400 -1,020 Descending Miami Center
06:31PM 26.0769 -80.2169 91° East 132 152 900 -780 Descending Miami Center
06:31PM 26.0772 -80.2022 89° East 134 154 600 -540 Descending Miami Center
06:34PM 26.0667 -80.1500 77° East  Level FlightAware Approximate
06:41PM 26.0726 -80.1527 77° East  Level Estimated